Portada
METAR-TAF:

METAR-TAF

Aeroports :

Montpeller, França

latitud: 43-35N, longitud: 003-58E, altitud: 5 m

Observació

L'informe es va fer fa 37 minuts, a les 02:00 UTC
Vent 3 kt del Oest
Temperatura 5°C
Humitat 87%
Pressió 1031 hPa
Visibilitat 10 km o més
sense núvols per sota de 1500 mi sense presència de cumulonimbus.

METAR: LFMT 230200Z AUTO 28003KT CAVOK 05/03 Q1031 NOSIG

Hora: 03:37 (02:37 UTC)

Pronòstic

L'informe es va fer fa 6 hores i 37 minuts, a les 20:00 UTC
Pronòstic vàlid del 22 a les 21 UTC al 23 a les 21 UTC
Vent 4 kt amb direcció variable
Visibilitat 10 km o més
sense núvols per sota de 1500 mi sense presència de cumulonimbus.

TAF: LFMT 222000Z 2221/2321 VRB04KT CAVOK

Observacions i pronòstics meteorològics de més de 4000 aeroports (METAR i TAF).

Les estacions disponibles són els punts grocs i vermells al mapa.

Posi el ratolí al punt desitjat per veure el nom de l'estació.

Feu clic per veure les observacions i els pronòstics meteorològics.

Per canviar el mapa: feu clic els botons verds amb una creu de color negre per apropar; al botó verd amb un guió per allunyar la imatge; o en les fletxes verdes per a mapes adjacents.


METAR-TAF: